Kelly C — WDI3956 — position and weather

sailwx.info

Track history (hours):
 
Tides and Currents Weather Stations Pressure Air Temp Water Temp Dewpoint Dewpoint Depression Visibility Wind Speed Wind Dir Waves Ship Positions

Kelly C

Owner: Curtin Maritime Corp., Long Beach, CA. More information available from US FCC via Universal Licensing System and Coast Guard Vessel Documentation Center.

Last reported at 2017-Oct-18 23:24 UTC. Time now 2017-Oct-18 23:59 UTC.
Position N 37°57' W 122°26'.

Length 25 m; draft 3 m.

Type: . MMSI: 367693690.

Date/timePositionNaut miles runAvg speedWind from/ knotsBaromVisibWave heightAir tempDewpointWater temp
2017-Oct-18 23:24N 37°57' W 122°26'1 3.1
2017-Oct-18 23:00N 37°56' W 122°26'2 3.4
2017-Oct-18 22:30N 37°55' W 122°24'2 3.5
2017-Oct-18 22:00N 37°54' W 122°22'1 1.5
2017-Oct-18 21:30N 37°54' W 122°23'4 7.0
2017-Oct-18 21:00N 37°57' W 122°26'4 8.1
2017-Oct-18 20:30N 38°01' W 122°24'4 7.4
2017-Oct-18 20:00N 38°03' W 122°20'1 1.6
2017-Oct-18 19:30N 38°02' W 122°21'4 7.5
2017-Oct-18 19:00N 38°00' W 122°24'4 7.7
2017-Oct-18 18:31N 37°56' W 122°26'2 4.2
2017-Oct-18 18:00N 37°55' W 122°25'3 5.5
2017-Oct-18 17:30N 37°57' W 122°26'3 5.5
2017-Oct-18 17:00N 37°60' W 122°25'3 5.9
2017-Oct-18 16:30N 38°02' W 122°22'4 7.5
2017-Oct-18 16:00N 38°03' W 122°18'0 0.9
2017-Oct-18 15:30N 38°03' W 122°17'3 5.4
2017-Oct-18 15:00N 38°02' W 122°20'6 5.5
2017-Oct-18 13:58N 37°59' W 122°26'2 4.2
2017-Oct-18 13:30N 38°00' W 122°24'3 7.0
2017-Oct-18 13:00N 38°02' W 122°21'4 8.2
2017-Oct-18 12:30N 38°04' W 122°16'2 4.7
2017-Oct-18 12:00N 38°06' W 122°16'0 0.7
2017-Oct-18 11:30N 38°06' W 122°16'2 4.0
2017-Oct-18 11:00N 38°05' W 122°15'1 2.9
2017-Oct-18 10:30N 38°04' W 122°16'2 4.1
2017-Oct-18 10:00N 38°03' W 122°18'3 5.1
2017-Oct-18 09:30N 38°02' W 122°21'3 5.1
2017-Oct-18 08:58N 38°00' W 122°24'2 5.0
2017-Oct-18 08:29N 37°58' W 122°26'3 5.3
2017-Oct-18 08:01N 37°56' W 122°25'0 0.4
2017-Oct-18 07:30N 37°56' W 122°25'4 7.3
2017-Oct-18 07:00N 37°59' W 122°25'3 6.8
2017-Oct-18 06:30N 38°02' W 122°22'3 6.9
2017-Oct-18 06:00N 38°03' W 122°18'3 6.1
2017-Oct-18 05:30N 38°05' W 122°15'2 4.0
2017-Oct-18 05:00N 38°06' W 122°16'0 0.5
2017-Oct-18 04:30N 38°06' W 122°16'3 5.2
2017-Oct-18 04:00N 38°04' W 122°17'3 6.1
2017-Oct-18 03:30N 38°02' W 122°20'3 6.7
2017-Oct-18 03:01N 38°01' W 122°24'4 7.1
2017-Oct-18 02:30N 37°58' W 122°26'3 5.7
2017-Oct-18 02:00N 37°55' W 122°26'4 6.9
2017-Oct-18 01:29N 37°58' W 122°26'4 8.3
2017-Oct-18 01:00N 38°01' W 122°23'510.1
2017-Oct-18 00:31N 38°03' W 122°17'3 5.9
2017-Oct-18 00:00N 38°06' W 122°16'0 0.1
2017-Oct-17 22:37N 38°06' W 122°16'0 1.8
2017-Oct-17 22:30N 38°06' W 122°16'2 3.4
2017-Oct-17 22:00N 38°05' W 122°15'2 3.8
2017-Oct-17 21:30N 38°03' W 122°17'3 6.7
2017-Oct-17 21:00N 38°02' W 122°21'3 6.3
2017-Oct-17 20:30N 38°01' W 122°24'3 6.0
2017-Oct-17 20:00N 37°58' W 122°26'3 6.2
2017-Oct-17 19:30N 37°55' W 122°25'1 2.3
2017-Oct-17 19:00N 37°54' W 122°24'5 9.4
2017-Oct-17 18:30N 37°59' W 122°25'5 9.4
2017-Oct-17 18:00N 38°02' W 122°21'5 9.2
2017-Oct-17 17:30N 38°04' W 122°16'2 4.1
2017-Oct-17 16:54N 38°06' W 122°16'2 5.9
2017-Oct-17 16:30N 38°04' W 122°15'3 5.9
2017-Oct-17 16:00N 38°03' W 122°19'3 5.3
2017-Oct-17 15:30N 38°02' W 122°22'3 5.8
2017-Oct-17 15:01N 38°00' W 122°24'3 5.9
2017-Oct-17 14:30N 37°57' W 122°26'3 5.7
2017-Oct-17 14:01N 37°55' W 122°25'2 4.2
2017-Oct-17 13:30N 37°54' W 122°22'1 1.7
2017-Oct-17 13:00N 37°54' W 122°23'2 4.9
2017-Oct-17 12:30N 37°56' W 122°26'2 3.2
2017-Oct-17 12:00N 37°57' W 122°26'2 3.5
2017-Oct-17 11:31N 37°56' W 122°25'1 2.2
2017-Oct-17 11:00N 37°55' W 122°25'1 1.5
2017-Oct-17 10:31N 37°54' W 122°24'0 0.8
2017-Oct-17 10:01N 37°54' W 122°23'4 8.2
2017-Oct-17 09:31N 37°58' W 122°26'3 6.8
2017-Oct-17 09:01N 38°01' W 122°24'3 6.9
2017-Oct-17 08:30N 38°03' W 122°20'3 6.3
2017-Oct-17 08:00N 38°04' W 122°16'2 3.7
2017-Oct-17 07:30N 38°05' W 122°15'1 1.8
2017-Oct-17 06:54N 38°06' W 122°16'0 0.7
2017-Oct-17 06:30N 38°06' W 122°16'3 5.5
2017-Oct-17 06:00N 38°03' W 122°17'4 7.7
2017-Oct-17 05:30N 38°02' W 122°21'4 7.7
2017-Oct-17 05:01N 37°59' W 122°25'4 7.5
2017-Oct-17 04:31N 37°56' W 122°25'1 2.0
2017-Oct-17 04:01N 37°57' W 122°26'4 8.7
2017-Oct-17 03:31N 38°01' W 122°24'5 9.9
2017-Oct-17 03:01N 38°03' W 122°18'3 7.0
2017-Oct-17 02:30N 38°06' W 122°16'1 1.1
2017-Oct-17 02:00N 38°06' W 122°16'2 4.5
2017-Oct-17 01:30N 38°03' W 122°16'2 4.8
2017-Oct-17 01:00N 38°03' W 122°19'3 5.1
2017-Oct-17 00:30N 38°02' W 122°22'3 5.6
2017-Oct-17 00:01N 37°60' W 122°25'3 5.9
2017-Oct-16 23:30N 37°57' W 122°26'3 5.5
2017-Oct-16 23:01N 37°54' W 122°24'1 1.9
2017-Oct-16 22:30N 37°54' W 122°23'2 3.5
2017-Oct-16 22:01N 37°55' W 122°25'2 3.4
2017-Oct-16 21:30N 37°54' W 122°23'0 0.7
2017-Oct-16 21:01N 37°54' W 122°23'0 0.6
2017-Oct-16 20:31N 37°54' W 122°23'0 0.0
2017-Oct-16 20:01N 37°54' W 122°23'3 5.4
2017-Oct-16 19:30N 37°56' W 122°26'4 8.0
2017-Oct-16 19:00N 38°00' W 122°24'4 7.2
2017-Oct-16 18:31N 38°02' W 122°20'3 6.9
2017-Oct-16 18:00N 38°04' W 122°16'2 4.4
2017-Oct-16 17:30N 38°06' W 122°16'2 3.5
2017-Oct-16 17:00N 38°04' W 122°15'3 6.9
2017-Oct-16 16:30N 38°03' W 122°19'3 6.5
2017-Oct-16 16:01N 38°01' W 122°23'2 3.6
2017-Oct-16 15:31N 38°02' W 122°21'3 6.9
2017-Oct-16 15:01N 38°03' W 122°17'2 4.6
2017-Oct-16 14:30N 38°05' W 122°15'1 0.9
2017-Oct-16 13:27N 38°06' W 122°16'2 3.4
2017-Oct-16 13:00N 38°05' W 122°15'2 3.9
2017-Oct-16 12:30N 38°03' W 122°17'2 4.2
2017-Oct-16 12:00N 38°03' W 122°19'2 4.6
2017-Oct-16 11:30N 38°02' W 122°22'2 4.9
2017-Oct-16 11:01N 38°00' W 122°24'3 5.0
2017-Oct-16 10:31N 37°58' W 122°26'3 5.0
2017-Oct-16 10:00N 37°56' W 122°25'2 4.1
2017-Oct-16 09:31N 37°54' W 122°24'0 0.8
2017-Oct-16 09:00N 37°54' W 122°23'4 8.0
2017-Oct-16 08:31N 37°58' W 122°26'0 0.8
2017-Oct-16 08:00N 37°58' W 122°26'2 3.6
2017-Oct-16 07:31N 37°56' W 122°26'2 4.1
2017-Oct-16 07:01N 37°55' W 122°25'1 1.7
2017-Oct-16 06:31N 37°54' W 122°24'1 1.6
2017-Oct-16 06:01N 37°55' W 122°25'4 8.1
2017-Oct-16 05:30N 37°59' W 122°26'4 7.4
2017-Oct-16 05:00N 38°01' W 122°22'4 7.6
2017-Oct-16 04:30N 38°03' W 122°18'3 6.1
2017-Oct-16 04:00N 38°05' W 122°15'1 1.0
2017-Oct-16 03:30N 38°05' W 122°15'2 4.9
2017-Oct-16 03:00N 38°03' W 122°17'3 5.3
2017-Oct-16 02:29N 38°02' W 122°20'3 6.0
2017-Oct-16 02:00N 38°01' W 122°24'3 6.0
2017-Oct-16 01:30N 37°58' W 122°26'3 6.0
2017-Oct-16 01:00N 37°55' W 122°25'0 0.3
2017-Oct-16 00:30N 37°55' W 122°25'3 6.8
2017-Oct-16 00:00N 37°59' W 122°26'4 7.1
2017-Oct-15 23:30N 38°01' W 122°23'2 3.7
2017-Oct-15 23:00N 38°00' W 122°24'3 5.7
2017-Oct-15 22:31N 37°58' W 122°26'3 5.3
2017-Oct-15 22:01N 37°55' W 122°25'3 5.4
2017-Oct-15 21:30N 37°54' W 122°22'1 2.4
2017-Oct-15 21:01N 37°54' W 122°23'0 0.0
2017-Oct-15 20:30N 37°54' W 122°23'0 0.0
2017-Oct-15 20:01N 37°54' W 122°23'3 5.0
2017-Oct-15 19:30N 37°56' W 122°26'4 7.8
2017-Oct-15 19:01N 37°60' W 122°25'3 6.9
2017-Oct-15 18:30N 38°02' W 122°21'3 6.1
2017-Oct-15 18:00N 38°03' W 122°18'3 5.4
2017-Oct-15 17:30N 38°05' W 122°15'1 1.7
2017-Oct-15 17:00N 38°05' W 122°15'1 2.2
2017-Oct-15 16:30N 38°04' W 122°15'2 4.1
2017-Oct-15 15:58N 38°06' W 122°16'1 1.9
2017-Oct-15 15:30N 38°06' W 122°16'2 4.5
2017-Oct-15 15:00N 38°04' W 122°17'6 5.6
2017-Oct-15 14:00N 38°01' W 122°23'3 6.2
2017-Oct-15 13:30N 37°59' W 122°25'3 6.2
2017-Oct-15 13:01N 37°56' W 122°25'3 5.5
2017-Oct-15 12:31N 37°54' W 122°22'2 3.6
2017-Oct-15 12:00N 37°55' W 122°25'4 8.9
2017-Oct-15 11:30N 37°59' W 122°25'5 9.9
2017-Oct-15 11:00N 38°02' W 122°20'0 0.7
2017-Oct-15 10:31N 38°02' W 122°20'2 4.6
2017-Oct-15 10:00N 38°01' W 122°22'3 5.1
2017-Oct-15 09:30N 37°60' W 122°25'2 4.8
2017-Oct-15 09:00N 37°57' W 122°26'4 7.8
2017-Oct-15 08:30N 38°01' W 122°24'4 8.8
2017-Oct-15 08:00N 38°03' W 122°19'4 7.1
2017-Oct-15 07:29N 38°05' W 122°15'1 1.7
2017-Oct-15 07:00N 38°04' W 122°15'3 6.4
2017-Oct-15 06:29N 38°03' W 122°19'3 6.6
2017-Oct-15 06:00N 38°01' W 122°22'3 6.5
2017-Oct-15 05:29N 37°59' W 122°25'3 6.0
2017-Oct-15 05:00N 37°56' W 122°26'3 5.5
2017-Oct-15 04:30N 37°54' W 122°23'4 7.4
2017-Oct-15 04:00N 37°57' W 122°26'5 9.2
2017-Oct-15 03:30N 38°01' W 122°23'5 9.7
2017-Oct-15 03:00N 38°03' W 122°17'3 5.5
2017-Oct-15 02:29N 38°06' W 122°16'0 0.8
2017-Oct-15 01:54N 38°06' W 122°16'0 0.0
2017-Oct-15 01:30N 38°06' W 122°16'2 4.9
2017-Oct-15 01:00N 38°04' W 122°15'2 4.1
2017-Oct-15 00:30N 38°03' W 122°17'2 3.6
2017-Oct-15 00:00N 38°03' W 122°19'2 3.9
2017-Oct-14 23:30N 38°02' W 122°22'2 4.8
2017-Oct-14 23:00N 38°00' W 122°24'2 4.7
2017-Oct-14 22:30N 37°59' W 122°26'2 4.7
2017-Oct-14 22:01N 37°56' W 122°26'2 4.4
2017-Oct-14 21:30N 37°54' W 122°24'0 0.9
2017-Oct-14 21:00N 37°55' W 122°25'3 6.2
2017-Oct-14 20:31N 37°58' W 122°26'3 6.8
2017-Oct-14 20:01N 38°01' W 122°24'3 6.4
2017-Oct-14 19:29N 38°02' W 122°20'3 5.8
2017-Oct-14 19:00N 38°03' W 122°17'2 4.5
2017-Oct-14 18:30N 38°05' W 122°15'2 3.7
2017-Oct-14 18:00N 38°06' W 122°16'1 1.9
2017-Oct-14 17:30N 38°06' W 122°16'3 5.6
2017-Oct-14 17:00N 38°03' W 122°18'4 8.3
2017-Oct-14 16:30N 38°02' W 122°22'4 8.4
2017-Oct-14 16:00N 37°58' W 122°26'4 7.9
2017-Oct-14 15:31N 37°55' W 122°24'2 3.7
2017-Oct-14 15:00N 37°54' W 122°22'4 7.2
2017-Oct-14 14:30N 37°56' W 122°26'4 8.6
2017-Oct-14 14:00N 38°00' W 122°24'5 9.7
2017-Oct-14 13:30N 38°03' W 122°19'4 7.8
2017-Oct-14 13:00N 38°06' W 122°16'0 0.5
2017-Oct-14 12:30N 38°05' W 122°15'2 4.1
2017-Oct-14 12:00N 38°04' W 122°16'2 4.2
2017-Oct-14 11:30N 38°03' W 122°19'2 4.4
2017-Oct-14 11:00N 38°02' W 122°21'3 5.4
2017-Oct-14 10:30N 38°00' W 122°24'2 4.7
2017-Oct-14 09:59N 37°58' W 122°26'2 3.8
2017-Oct-14 09:31N 37°57' W 122°26'2 4.2
2017-Oct-14 09:01N 37°55' W 122°25'1 1.9
2017-Oct-14 08:30N 37°54' W 122°24'0 0.0
2017-Oct-14 08:00N 37°54' W 122°24'0 0.0
2017-Oct-14 07:30N 37°54' W 122°24'0 0.0
2017-Oct-14 07:01N 37°54' W 122°24'0 0.0
2017-Oct-14 06:31N 37°54' W 122°24'0 0.1
2017-Oct-14 06:01N 37°54' W 122°24'0 0.0
2017-Oct-14 05:31N 37°54' W 122°24'1 2.9
2017-Oct-14 05:00N 37°54' W 122°22'0 0.4
2017-Oct-14 04:30N 37°54' W 122°22'3 5.7
2017-Oct-14 03:59N 37°55' W 122°25'3 6.9
2017-Oct-14 03:30N 37°59' W 122°26'3 6.2
2017-Oct-14 03:00N 38°01' W 122°23'3 6.1
2017-Oct-14 02:31N 38°03' W 122°20'3 6.2
2017-Oct-14 02:00N 38°04' W 122°16'2 4.2
2017-Oct-14 01:30N 38°06' W 122°16'1 0.9
2017-Oct-14 00:42N 38°06' W 122°16'1 6.7
2017-Oct-14 00:30N 38°05' W 122°15'3 5.4
2017-Oct-14 00:00N 38°03' W 122°17'3 6.5
2017-Oct-13 23:30N 38°02' W 122°21'4 7.3
2017-Oct-13 23:01N 37°60' W 122°25'3 6.9
2017-Oct-13 22:30N 37°56' W 122°26'3 5.4
2017-Oct-13 22:00N 37°54' W 122°24'0 0.1
2017-Oct-13 21:30N 37°54' W 122°24'3 6.5
2017-Oct-13 21:00N 37°57' W 122°26'3 6.5
2017-Oct-13 20:31N 37°60' W 122°24'2 4.3
2017-Oct-13 20:00N 37°58' W 122°26'2 4.0
2017-Oct-13 19:30N 37°56' W 122°26'2 4.0
2017-Oct-13 19:01N 37°54' W 122°24'1 2.1
2017-Oct-13 18:30N 37°55' W 122°25'4 7.9
2017-Oct-13 18:00N 37°59' W 122°25'4 7.4
2017-Oct-13 17:30N 38°02' W 122°22'3 6.5
2017-Oct-13 17:00N 38°03' W 122°18'1 2.5
2017-Oct-13 16:30N 38°03' W 122°19'4 7.9
2017-Oct-13 16:00N 38°01' W 122°24'4 7.5
2017-Oct-13 15:30N 37°57' W 122°26'4 7.3
2017-Oct-13 15:01N 37°54' W 122°23'1 1.6
2017-Oct-13 14:30N 37°54' W 122°22'4 7.1
2017-Oct-13 14:00N 37°56' W 122°26'3 6.8
2017-Oct-13 13:30N 37°60' W 122°25'3 6.5
2017-Oct-13 13:00N 38°02' W 122°21'2 4.6
2017-Oct-13 12:30N 38°01' W 122°24'3 6.4
2017-Oct-13 11:59N 37°58' W 122°26'3 6.6
2017-Oct-13 11:30N 37°55' W 122°24'1 1.5
2017-Oct-13 11:00N 37°54' W 122°24'0 0.3
2017-Oct-13 10:30N 37°54' W 122°24'4 8.4
2017-Oct-13 10:00N 37°58' W 122°26'5 9.3
2017-Oct-13 09:31N 38°02' W 122°22'5 9.4
2017-Oct-13 09:00N 38°04' W 122°16'1 2.0
2017-Oct-13 08:29N 38°03' W 122°18'2 4.0
2017-Oct-13 07:59N 38°02' W 122°20'2 4.3
2017-Oct-13 07:29N 38°02' W 122°22'2 4.8
2017-Oct-13 07:01N 37°60' W 122°25'2 4.6
2017-Oct-13 06:31N 37°58' W 122°26'2 4.9
2017-Oct-13 06:00N 37°55' W 122°25'2 3.6
2017-Oct-13 05:31N 37°54' W 122°24'3 5.8
2017-Oct-13 05:00N 37°57' W 122°26'4 8.7
2017-Oct-13 04:30N 38°01' W 122°24'1 1.1
2017-Oct-13 04:00N 38°00' W 122°24'3 5.4
2017-Oct-13 03:30N 37°58' W 122°26'0 0.3
2017-Oct-13 03:00N 37°58' W 122°26'4 7.5
2017-Oct-13 02:31N 38°01' W 122°23'3 6.6
2017-Oct-13 02:00N 38°02' W 122°20'3 6.5
2017-Oct-13 01:30N 38°04' W 122°16'2 4.3
2017-Oct-13 01:00N 38°06' W 122°16'1 0.5
2017-Oct-12 23:43N 38°06' W 122°16'1 3.8
2017-Oct-12 23:30N 38°06' W 122°16'2 4.2
2017-Oct-12 22:58N 38°04' W 122°17'2 5.0
2017-Oct-12 22:30N 38°03' W 122°19'3 5.4
2017-Oct-12 22:00N 38°02' W 122°22'3 5.6
2017-Oct-12 21:30N 37°60' W 122°25'3 5.3
2017-Oct-12 21:00N 37°57' W 122°26'2 5.1
2017-Oct-12 20:30N 37°55' W 122°25'1 1.7
2017-Oct-12 20:00N 37°54' W 122°24'1 1.3
2017-Oct-12 19:30N 37°54' W 122°23'1 2.3
2017-Oct-12 19:00N 37°55' W 122°22'0 0.7
2017-Oct-12 18:30N 37°55' W 122°22'0 0.0
2017-Oct-12 18:00N 37°55' W 122°22'0 0.0
2017-Oct-12 17:30N 37°55' W 122°22'0 0.0
2017-Oct-12 17:01N 37°55' W 122°22'0 0.0
2017-Oct-12 16:31N 37°55' W 122°22'0 0.0
2017-Oct-12 16:00N 37°55' W 122°22'0 0.0
2017-Oct-12 15:31N 37°55' W 122°22'0 0.0
2017-Oct-12 15:00N 37°55' W 122°22'1 2.4
2017-Oct-12 14:30N 37°54' W 122°23'3 6.4
2017-Oct-12 14:00N 37°57' W 122°26'3 6.3
2017-Oct-12 13:30N 37°60' W 122°25'3 6.0
2017-Oct-12 13:00N 38°02' W 122°22'3 6.4
2017-Oct-12 12:31N 38°03' W 122°18'3 5.9
2017-Oct-12 11:58N 38°04' W 122°15'2 3.5
2017-Oct-12 11:30N 38°06' W 122°16'1 2.1
2017-Oct-12 11:00N 38°05' W 122°15'2 4.8
2017-Oct-12 10:30N 38°03' W 122°17'3 6.1
2017-Oct-12 10:00N 38°02' W 122°21'3 6.6
2017-Oct-12 09:30N 38°00' W 122°24'2 3.6
2017-Oct-12 09:00N 37°59' W 122°25'4 8.7
2017-Oct-12 08:30N 38°02' W 122°21'3 6.5
2017-Oct-12 08:00N 38°03' W 122°18'1 1.6
2017-Oct-12 07:30N 38°03' W 122°19'1 2.5
2017-Oct-12 07:01N 38°02' W 122°20'2 3.1
2017-Oct-12 06:30N 38°02' W 122°22'2 3.3
2017-Oct-12 06:01N 38°01' W 122°24'2 3.6
2017-Oct-12 05:30N 37°59' W 122°25'2 4.2
2017-Oct-12 05:00N 37°57' W 122°26'2 3.7
2017-Oct-12 04:30N 37°56' W 122°25'2 3.9
2017-Oct-12 04:01N 37°54' W 122°24'0 0.3
2017-Oct-12 03:31N 37°54' W 122°24'5 9.4
2017-Oct-12 03:01N 37°59' W 122°25'0 0.4
2017-Oct-12 02:30N 37°59' W 122°25'3 5.6
2017-Oct-12 02:00N 37°56' W 122°26'3 6.1
2017-Oct-12 01:31N 37°54' W 122°23'1 1.3
2017-Oct-12 01:01N 37°54' W 122°24'3 6.6
2017-Oct-12 00:31N 37°57' W 122°26'3 6.3
2017-Oct-12 00:00N 38°00' W 122°24'3 6.2
2017-Oct-11 23:31N 38°02' W 122°21'3 6.6
2017-Oct-11 23:00N 38°03' W 122°17'2 4.8
2017-Oct-11 22:30N 38°05' W 122°15'0 0.1
2017-Oct-11 22:00N 38°05' W 122°15'3 6.5
2017-Oct-11 21:30N 38°03' W 122°18'3 7.0
2017-Oct-11 21:00N 38°02' W 122°22'4 7.5
2017-Oct-11 20:30N 37°59' W 122°25'4 7.1
2017-Oct-11 20:00N 37°55' W 122°25'1 1.7
2017-Oct-11 19:30N 37°55' W 122°24'4 7.2
2017-Oct-11 19:00N 37°58' W 122°26'4 7.7
2017-Oct-11 18:30N 38°01' W 122°23'1 2.8
2017-Oct-11 18:00N 38°02' W 122°21'2 4.2
2017-Oct-11 17:31N 38°01' W 122°24'2 4.5
2017-Oct-11 17:01N 37°59' W 122°25'5 0.3
2017-Oct-11 00:00N 37°54' W 122°24'1 2.0
2017-Oct-10 23:30N 37°55' W 122°25'4 6.4
2017-Oct-10 22:56N 37°59' W 122°26'3 6.2
2017-Oct-10 22:30N 38°01' W 122°24'3 6.3
2017-Oct-10 22:01N 38°02' W 122°20'3 6.7
2017-Oct-10 21:30N 38°03' W 122°16'2 4.1
2017-Oct-10 21:00N 38°05' W 122°15'2 3.1
2017-Oct-10 20:30N 38°04' W 122°16'4 7.2
2017-Oct-10 20:00N 38°03' W 122°20'4 8.0
2017-Oct-10 19:30N 38°00' W 122°24'4 7.8
2017-Oct-10 18:58N 37°57' W 122°26'3 6.1
2017-Oct-10 18:30N 37°54' W 122°24'2 3.3
2017-Oct-10 18:00N 37°55' W 122°22'0 0.0
2017-Oct-10 17:30N 37°55' W 122°22'0 0.0
2017-Oct-10 17:00N 37°55' W 122°22'0 0.0
2017-Oct-10 16:30N 37°55' W 122°22'0 0.0
2017-Oct-10 16:00N 37°55' W 122°22'0 0.0
2017-Oct-10 15:30N 37°55' W 122°22'0 0.0
2017-Oct-10 15:00N 37°55' W 122°22'1 1.2
2017-Oct-10 14:00N 37°54' W 122°22'0 0.0
2017-Oct-10 13:30N 37°54' W 122°22'0 0.5
2017-Oct-10 13:01N 37°54' W 122°22'2 3.6
2017-Oct-10 12:31N 37°55' W 122°24'3 6.7
2017-Oct-10 12:00N 37°58' W 122°26'4 7.3
2017-Oct-10 11:30N 38°01' W 122°24'4 7.2
2017-Oct-10 11:00N 38°02' W 122°20'4 7.5
2017-Oct-10 10:29N 38°04' W 122°15'2 3.3
2017-Oct-10 09:59N 38°06' W 122°16'2 4.0
2017-Oct-10 09:27N 38°04' W 122°16'2 5.5
2017-Oct-10 09:00N 38°03' W 122°19'3 5.5
2017-Oct-10 08:30N 38°01' W 122°22'3 5.8
2017-Oct-10 08:00N 37°59' W 122°25'3 5.8
2017-Oct-10 07:30N 37°57' W 122°26'3 5.3
2017-Oct-10 07:01N 37°54' W 122°24'2 3.4
2017-Oct-10 06:31N 37°54' W 122°22'0 0.2
2017-Oct-10 06:00N 37°54' W 122°22'1 3.0
2017-Oct-10 05:30N 37°54' W 122°24'5 8.8
2017-Oct-10 04:58N 37°59' W 122°25'1 2.0
2017-Oct-10 04:30N 37°60' W 122°25'3 5.0
2017-Oct-10 03:59N 37°57' W 122°26'2 4.7
2017-Oct-10 03:31N 37°55' W 122°25'1 2.4
2017-Oct-10 03:00N 37°54' W 122°24'4 8.1
2017-Oct-10 02:31N 37°58' W 122°26'4 7.9
2017-Oct-10 02:00N 38°01' W 122°23'4 7.1
2017-Oct-10 01:30N 38°03' W 122°19'3 6.2
2017-Oct-10 01:00N 38°04' W 122°15'1 1.5
2017-Oct-10 00:29N 38°03' W 122°16'3 5.4
2017-Oct-10 00:00N 38°03' W 122°19'4 8.1
2017-Oct-09 23:30N 38°01' W 122°24'3 5.5
2017-Oct-09 23:00N 37°58' W 122°26'4 7.3
2017-Oct-09 22:30N 38°01' W 122°23'4 7.2
2017-Oct-09 22:01N 38°03' W 122°19'4 6.5
2017-Oct-09 21:27N 38°05' W 122°15'2 2.4
2017-Oct-09 20:36N 38°06' W 122°16'1 4.8
2017-Oct-09 20:26N 38°06' W 122°16'2 4.9
2017-Oct-09 19:59N 38°03' W 122°16'3 5.5
2017-Oct-09 19:30N 38°03' W 122°20'3 6.1
2017-Oct-09 19:01N 38°01' W 122°23'3 6.6
2017-Oct-09 18:30N 37°59' W 122°25'0 0.8
2017-Oct-09 17:57N 37°58' W 122°26'4 8.9
2017-Oct-09 17:30N 38°01' W 122°23'3 6.0
2017-Oct-09 17:00N 38°03' W 122°19'2 4.1
2017-Oct-09 16:30N 38°02' W 122°21'2 4.6
2017-Oct-09 15:59N 38°01' W 122°24'3 4.4
2017-Oct-09 15:18N 37°58' W 122°26'1 4.1
2017-Oct-09 14:59N 37°57' W 122°26'2 4.3
2017-Oct-09 14:30N 37°55' W 122°25'1 1.8
2017-Oct-09 14:01N 37°54' W 122°24'1 1.8
2017-Oct-09 13:30N 37°54' W 122°23'3 6.0
2017-Oct-09 13:00N 37°56' W 122°26'3 6.5
2017-Oct-09 12:30N 37°59' W 122°25'3 5.6
2017-Oct-09 12:01N 38°01' W 122°23'3 5.1
2017-Oct-09 11:30N 38°02' W 122°20'2 4.6
2017-Oct-09 11:00N 38°03' W 122°17'2 4.0
2017-Oct-09 10:25N 38°05' W 122°15'1 0.2
2017-Oct-09 06:05N 38°05' W 122°15'1 2.9
2017-Oct-09 05:52N 38°05' W 122°15'1 3.4
2017-Oct-09 05:27N 38°04' W 122°16'2 3.4
2017-Oct-09 05:00N 38°03' W 122°18'2 3.7
2017-Oct-09 04:30N 38°02' W 122°20'2 3.8
2017-Oct-09 04:00N 38°01' W 122°22'2 3.9
2017-Oct-09 03:28N 38°00' W 122°24'2 3.8
2017-Oct-09 02:59N 37°59' W 122°26'2 4.1
2017-Oct-09 02:31N 37°57' W 122°26'2 3.7
2017-Oct-09 02:01N 37°55' W 122°25'2 4.9
2017-Oct-09 01:31N 37°54' W 122°22'2 3.3
2017-Oct-09 01:00N 37°54' W 122°24'611.4
2017-Oct-09 00:29N 38°00' W 122°24'611.7
2017-Oct-09 00:00N 38°03' W 122°17'  
Track history (hours):
 
Tides and Currents Weather Stations Pressure Air Temp Water Temp Dewpoint Dewpoint Depression Visibility Wind Speed Wind Dir Waves Ship Positions

Kelly C

Owner: Curtin Maritime Corp., Long Beach, CA. More information available from US FCC via Universal Licensing System and Coast Guard Vessel Documentation Center.

Last reported at 2017-Oct-18 23:24 UTC. Time now 2017-Oct-18 23:59 UTC.
Position N 37°57' W 122°26'.

Length 25 m; draft 3 m.

Type: . MMSI: 367693690.

Date/timePositionNaut miles runAvg speedWind from/ knotsBaromVisibWave heightAir tempDewpointWater temp
2017-Oct-18 23:24N 37°57' W 122°26'1 3.1
2017-Oct-18 23:00N 37°56' W 122°26'2 3.4
2017-Oct-18 22:30N 37°55' W 122°24'2 3.5
2017-Oct-18 22:00N 37°54' W 122°22'1 1.5
2017-Oct-18 21:30N 37°54' W 122°23'4 7.0
2017-Oct-18 21:00N 37°57' W 122°26'4 8.1
2017-Oct-18 20:30N 38°01' W 122°24'4 7.4
2017-Oct-18 20:00N 38°03' W 122°20'1 1.6
2017-Oct-18 19:30N 38°02' W 122°21'4 7.5
2017-Oct-18 19:00N 38°00' W 122°24'4 7.7
2017-Oct-18 18:31N 37°56' W 122°26'2 4.2
2017-Oct-18 18:00N 37°55' W 122°25'3 5.5
2017-Oct-18 17:30N 37°57' W 122°26'3 5.5
2017-Oct-18 17:00N 37°60' W 122°25'3 5.9
2017-Oct-18 16:30N 38°02' W 122°22'4 7.5
2017-Oct-18 16:00N 38°03' W 122°18'0 0.9
2017-Oct-18 15:30N 38°03' W 122°17'3 5.4
2017-Oct-18 15:00N 38°02' W 122°20'6 5.5
2017-Oct-18 13:58N 37°59' W 122°26'2 4.2
2017-Oct-18 13:30N 38°00' W 122°24'3 7.0
2017-Oct-18 13:00N 38°02' W 122°21'4 8.2
2017-Oct-18 12:30N 38°04' W 122°16'2 4.7
2017-Oct-18 12:00N 38°06' W 122°16'0 0.7
2017-Oct-18 11:30N 38°06' W 122°16'2 4.0
2017-Oct-18 11:00N 38°05' W 122°15'1 2.9
2017-Oct-18 10:30N 38°04' W 122°16'2 4.1
2017-Oct-18 10:00N 38°03' W 122°18'3 5.1
2017-Oct-18 09:30N 38°02' W 122°21'3 5.1
2017-Oct-18 08:58N 38°00' W 122°24'2 5.0
2017-Oct-18 08:29N 37°58' W 122°26'3 5.3
2017-Oct-18 08:01N 37°56' W 122°25'0 0.4
2017-Oct-18 07:30N 37°56' W 122°25'4 7.3
2017-Oct-18 07:00N 37°59' W 122°25'3 6.8
2017-Oct-18 06:30N 38°02' W 122°22'3 6.9
2017-Oct-18 06:00N 38°03' W 122°18'3 6.1
2017-Oct-18 05:30N 38°05' W 122°15'2 4.0
2017-Oct-18 05:00N 38°06' W 122°16'0 0.5
2017-Oct-18 04:30N 38°06' W 122°16'3 5.2
2017-Oct-18 04:00N 38°04' W 122°17'3 6.1
2017-Oct-18 03:30N 38°02' W 122°20'3 6.7
2017-Oct-18 03:01N 38°01' W 122°24'4 7.1
2017-Oct-18 02:30N 37°58' W 122°26'3 5.7
2017-Oct-18 02:00N 37°55' W 122°26'4 6.9
2017-Oct-18 01:29N 37°58' W 122°26'4 8.3
2017-Oct-18 01:00N 38°01' W 122°23'510.1
2017-Oct-18 00:31N 38°03' W 122°17'3 5.9
2017-Oct-18 00:00N 38°06' W 122°16'0 0.1
2017-Oct-17 22:37N 38°06' W 122°16'0 1.8
2017-Oct-17 22:30N 38°06' W 122°16'2 3.4
2017-Oct-17 22:00N 38°05' W 122°15'2 3.8
2017-Oct-17 21:30N 38°03' W 122°17'3 6.7
2017-Oct-17 21:00N 38°02' W 122°21'3 6.3
2017-Oct-17 20:30N 38°01' W 122°24'3 6.0
2017-Oct-17 20:00N 37°58' W 122°26'3 6.2
2017-Oct-17 19:30N 37°55' W 122°25'1 2.3
2017-Oct-17 19:00N 37°54' W 122°24'5 9.4
2017-Oct-17 18:30N 37°59' W 122°25'5 9.4
2017-Oct-17 18:00N 38°02' W 122°21'5 9.2
2017-Oct-17 17:30N 38°04' W 122°16'2 4.1
2017-Oct-17 16:54N 38°06' W 122°16'2 5.9
2017-Oct-17 16:30N 38°04' W 122°15'3 5.9
2017-Oct-17 16:00N 38°03' W 122°19'3 5.3
2017-Oct-17 15:30N 38°02' W 122°22'3 5.8
2017-Oct-17 15:01N 38°00' W 122°24'3 5.9
2017-Oct-17 14:30N 37°57' W 122°26'3 5.7
2017-Oct-17 14:01N 37°55' W 122°25'2 4.2
2017-Oct-17 13:30N 37°54' W 122°22'1 1.7
2017-Oct-17 13:00N 37°54' W 122°23'2 4.9
2017-Oct-17 12:30N 37°56' W 122°26'2 3.2
2017-Oct-17 12:00N 37°57' W 122°26'2 3.5
2017-Oct-17 11:31N 37°56' W 122°25'1 2.2
2017-Oct-17 11:00N 37°55' W 122°25'1 1.5
2017-Oct-17 10:31N 37°54' W 122°24'0 0.8
2017-Oct-17 10:01N 37°54' W 122°23'4 8.2
2017-Oct-17 09:31N 37°58' W 122°26'3 6.8
2017-Oct-17 09:01N 38°01' W 122°24'3 6.9
2017-Oct-17 08:30N 38°03' W 122°20'3 6.3
2017-Oct-17 08:00N 38°04' W 122°16'2 3.7
2017-Oct-17 07:30N 38°05' W 122°15'1 1.8
2017-Oct-17 06:54N 38°06' W 122°16'0 0.7
2017-Oct-17 06:30N 38°06' W 122°16'3 5.5
2017-Oct-17 06:00N 38°03' W 122°17'4 7.7
2017-Oct-17 05:30N 38°02' W 122°21'4 7.7
2017-Oct-17 05:01N 37°59' W 122°25'4 7.5
2017-Oct-17 04:31N 37°56' W 122°25'1 2.0
2017-Oct-17 04:01N 37°57' W 122°26'4 8.7
2017-Oct-17 03:31N 38°01' W 122°24'5 9.9
2017-Oct-17 03:01N 38°03' W 122°18'3 7.0
2017-Oct-17 02:30N 38°06' W 122°16'1 1.1
2017-Oct-17 02:00N 38°06' W 122°16'2 4.5
2017-Oct-17 01:30N 38°03' W 122°16'2 4.8
2017-Oct-17 01:00N 38°03' W 122°19'3 5.1
2017-Oct-17 00:30N 38°02' W 122°22'3 5.6
2017-Oct-17 00:01N 37°60' W 122°25'3 5.9
2017-Oct-16 23:30N 37°57' W 122°26'3 5.5
2017-Oct-16 23:01N 37°54' W 122°24'1 1.9
2017-Oct-16 22:30N 37°54' W 122°23'2 3.5
2017-Oct-16 22:01N 37°55' W 122°25'2 3.4
2017-Oct-16 21:30N 37°54' W 122°23'0 0.7
2017-Oct-16 21:01N 37°54' W 122°23'0 0.6
2017-Oct-16 20:31N 37°54' W 122°23'0 0.0
2017-Oct-16 20:01N 37°54' W 122°23'3 5.4
2017-Oct-16 19:30N 37°56' W 122°26'4 8.0
2017-Oct-16 19:00N 38°00' W 122°24'4 7.2
2017-Oct-16 18:31N 38°02' W 122°20'3 6.9
2017-Oct-16 18:00N 38°04' W 122°16'2 4.4
2017-Oct-16 17:30N 38°06' W 122°16'2 3.5
2017-Oct-16 17:00N 38°04' W 122°15'3 6.9
2017-Oct-16 16:30N 38°03' W 122°19'3 6.5
2017-Oct-16 16:01N 38°01' W 122°23'2 3.6
2017-Oct-16 15:31N 38°02' W 122°21'3 6.9
2017-Oct-16 15:01N 38°03' W 122°17'2 4.6
2017-Oct-16 14:30N 38°05' W 122°15'1 0.9
2017-Oct-16 13:27N 38°06' W 122°16'2 3.4
2017-Oct-16 13:00N 38°05' W 122°15'2 3.9
2017-Oct-16 12:30N 38°03' W 122°17'2 4.2
2017-Oct-16 12:00N 38°03' W 122°19'2 4.6
2017-Oct-16 11:30N 38°02' W 122°22'2 4.9
2017-Oct-16 11:01N 38°00' W 122°24'3 5.0
2017-Oct-16 10:31N 37°58' W 122°26'3 5.0
2017-Oct-16 10:00N 37°56' W 122°25'2 4.1
2017-Oct-16 09:31N 37°54' W 122°24'0 0.8
2017-Oct-16 09:00N 37°54' W 122°23'4 8.0
2017-Oct-16 08:31N 37°58' W 122°26'0 0.8
2017-Oct-16 08:00N 37°58' W 122°26'2 3.6
2017-Oct-16 07:31N 37°56' W 122°26'2 4.1
2017-Oct-16 07:01N 37°55' W 122°25'1 1.7
2017-Oct-16 06:31N 37°54' W 122°24'1 1.6
2017-Oct-16 06:01N 37°55' W 122°25'4 8.1
2017-Oct-16 05:30N 37°59' W 122°26'4 7.4
2017-Oct-16 05:00N 38°01' W 122°22'4 7.6
2017-Oct-16 04:30N 38°03' W 122°18'3 6.1
2017-Oct-16 04:00N 38°05' W 122°15'1 1.0
2017-Oct-16 03:30N 38°05' W 122°15'2 4.9
2017-Oct-16 03:00N 38°03' W 122°17'3 5.3
2017-Oct-16 02:29N 38°02' W 122°20'3 6.0
2017-Oct-16 02:00N 38°01' W 122°24'3 6.0
2017-Oct-16 01:30N 37°58' W 122°26'3 6.0
2017-Oct-16 01:00N 37°55' W 122°25'0 0.3
2017-Oct-16 00:30N 37°55' W 122°25'3 6.8
2017-Oct-16 00:00N 37°59' W 122°26'4 7.1
2017-Oct-15 23:30N 38°01' W 122°23'2 3.7
2017-Oct-15 23:00N 38°00' W 122°24'3 5.7
2017-Oct-15 22:31N 37°58' W 122°26'3 5.3
2017-Oct-15 22:01N 37°55' W 122°25'3 5.4
2017-Oct-15 21:30N 37°54' W 122°22'1 2.4
2017-Oct-15 21:01N 37°54' W 122°23'0 0.0
2017-Oct-15 20:30N 37°54' W 122°23'0 0.0
2017-Oct-15 20:01N 37°54' W 122°23'3 5.0
2017-Oct-15 19:30N 37°56' W 122°26'4 7.8
2017-Oct-15 19:01N 37°60' W 122°25'3 6.9
2017-Oct-15 18:30N 38°02' W 122°21'3 6.1
2017-Oct-15 18:00N 38°03' W 122°18'3 5.4
2017-Oct-15 17:30N 38°05' W 122°15'1 1.7
2017-Oct-15 17:00N 38°05' W 122°15'1 2.2
2017-Oct-15 16:30N 38°04' W 122°15'2 4.1
2017-Oct-15 15:58N 38°06' W 122°16'1 1.9
2017-Oct-15 15:30N 38°06' W 122°16'2 4.5
2017-Oct-15 15:00N 38°04' W 122°17'6 5.6
2017-Oct-15 14:00N 38°01' W 122°23'3 6.2
2017-Oct-15 13:30N 37°59' W 122°25'3 6.2
2017-Oct-15 13:01N 37°56' W 122°25'3 5.5
2017-Oct-15 12:31N 37°54' W 122°22'2 3.6
2017-Oct-15 12:00N 37°55' W 122°25'4 8.9
2017-Oct-15 11:30N 37°59' W 122°25'5 9.9
2017-Oct-15 11:00N 38°02' W 122°20'0 0.7
2017-Oct-15 10:31N 38°02' W 122°20'2 4.6
2017-Oct-15 10:00N 38°01' W 122°22'3 5.1
2017-Oct-15 09:30N 37°60' W 122°25'2 4.8
2017-Oct-15 09:00N 37°57' W 122°26'4 7.8
2017-Oct-15 08:30N 38°01' W 122°24'4 8.8
2017-Oct-15 08:00N 38°03' W 122°19'4 7.1
2017-Oct-15 07:29N 38°05' W 122°15'1 1.7
2017-Oct-15 07:00N 38°04' W 122°15'3 6.4
2017-Oct-15 06:29N 38°03' W 122°19'3 6.6
2017-Oct-15 06:00N 38°01' W 122°22'3 6.5
2017-Oct-15 05:29N 37°59' W 122°25'3 6.0
2017-Oct-15 05:00N 37°56' W 122°26'3 5.5
2017-Oct-15 04:30N 37°54' W 122°23'4 7.4
2017-Oct-15 04:00N 37°57' W 122°26'5 9.2
2017-Oct-15 03:30N 38°01' W 122°23'5 9.7
2017-Oct-15 03:00N 38°03' W 122°17'3 5.5
2017-Oct-15 02:29N 38°06' W 122°16'0 0.8
2017-Oct-15 01:54N 38°06' W 122°16'0 0.0
2017-Oct-15 01:30N 38°06' W 122°16'2 4.9
2017-Oct-15 01:00N 38°04' W 122°15'2 4.1
2017-Oct-15 00:30N 38°03' W 122°17'2 3.6
2017-Oct-15 00:00N 38°03' W 122°19'2 3.9
2017-Oct-14 23:30N 38°02' W 122°22'2 4.8
2017-Oct-14 23:00N 38°00' W 122°24'2 4.7
2017-Oct-14 22:30N 37°59' W 122°26'2 4.7
2017-Oct-14 22:01N 37°56' W 122°26'2 4.4
2017-Oct-14 21:30N 37°54' W 122°24'0 0.9
2017-Oct-14 21:00N 37°55' W 122°25'3 6.2
2017-Oct-14 20:31N 37°58' W 122°26'3 6.8
2017-Oct-14 20:01N 38°01' W 122°24'3 6.4
2017-Oct-14 19:29N 38°02' W 122°20'3 5.8
2017-Oct-14 19:00N 38°03' W 122°17'2 4.5
2017-Oct-14 18:30N 38°05' W 122°15'2 3.7
2017-Oct-14 18:00N 38°06' W 122°16'1 1.9
2017-Oct-14 17:30N 38°06' W 122°16'3 5.6
2017-Oct-14 17:00N 38°03' W 122°18'4 8.3
2017-Oct-14 16:30N 38°02' W 122°22'4 8.4
2017-Oct-14 16:00N 37°58' W 122°26'4 7.9
2017-Oct-14 15:31N 37°55' W 122°24'2 3.7
2017-Oct-14 15:00N 37°54' W 122°22'4 7.2
2017-Oct-14 14:30N 37°56' W 122°26'4 8.6
2017-Oct-14 14:00N 38°00' W 122°24'5 9.7
2017-Oct-14 13:30N 38°03' W 122°19'4 7.8
2017-Oct-14 13:00N 38°06' W 122°16'0 0.5
2017-Oct-14 12:30N 38°05' W 122°15'2 4.1
2017-Oct-14 12:00N 38°04' W 122°16'2 4.2
2017-Oct-14 11:30N 38°03' W 122°19'2 4.4
2017-Oct-14 11:00N 38°02' W 122°21'3 5.4
2017-Oct-14 10:30N 38°00' W 122°24'2 4.7
2017-Oct-14 09:59N 37°58' W 122°26'2 3.8
2017-Oct-14 09:31N 37°57' W 122°26'2 4.2
2017-Oct-14 09:01N 37°55' W 122°25'1 1.9
2017-Oct-14 08:30N 37°54' W 122°24'0 0.0
2017-Oct-14 08:00N 37°54' W 122°24'0 0.0
2017-Oct-14 07:30N 37°54' W 122°24'0 0.0
2017-Oct-14 07:01N 37°54' W 122°24'0 0.0
2017-Oct-14 06:31N 37°54' W 122°24'0 0.1
2017-Oct-14 06:01N 37°54' W 122°24'0 0.0
2017-Oct-14 05:31N 37°54' W 122°24'1 2.9
2017-Oct-14 05:00N 37°54' W 122°22'0 0.4
2017-Oct-14 04:30N 37°54' W 122°22'3 5.7
2017-Oct-14 03:59N 37°55' W 122°25'3 6.9
2017-Oct-14 03:30N 37°59' W 122°26'3 6.2
2017-Oct-14 03:00N 38°01' W 122°23'3 6.1
2017-Oct-14 02:31N 38°03' W 122°20'3 6.2
2017-Oct-14 02:00N 38°04' W 122°16'2 4.2
2017-Oct-14 01:30N 38°06' W 122°16'1 0.9
2017-Oct-14 00:42N 38°06' W 122°16'1 6.7
2017-Oct-14 00:30N 38°05' W 122°15'3 5.4
2017-Oct-14 00:00N 38°03' W 122°17'3 6.5
2017-Oct-13 23:30N 38°02' W 122°21'4 7.3
2017-Oct-13 23:01N 37°60' W 122°25'3 6.9
2017-Oct-13 22:30N 37°56' W 122°26'3 5.4
2017-Oct-13 22:00N 37°54' W 122°24'0 0.1
2017-Oct-13 21:30N 37°54' W 122°24'3 6.5
2017-Oct-13 21:00N 37°57' W 122°26'3 6.5
2017-Oct-13 20:31N 37°60' W 122°24'2 4.3
2017-Oct-13 20:00N 37°58' W 122°26'2 4.0
2017-Oct-13 19:30N 37°56' W 122°26'2 4.0
2017-Oct-13 19:01N 37°54' W 122°24'1 2.1
2017-Oct-13 18:30N 37°55' W 122°25'4 7.9
2017-Oct-13 18:00N 37°59' W 122°25'4 7.4
2017-Oct-13 17:30N 38°02' W 122°22'3 6.5
2017-Oct-13 17:00N 38°03' W 122°18'1 2.5
2017-Oct-13 16:30N 38°03' W 122°19'4 7.9
2017-Oct-13 16:00N 38°01' W 122°24'4 7.5
2017-Oct-13 15:30N 37°57' W 122°26'4 7.3
2017-Oct-13 15:01N 37°54' W 122°23'1 1.6
2017-Oct-13 14:30N 37°54' W 122°22'4 7.1
2017-Oct-13 14:00N 37°56' W 122°26'3 6.8
2017-Oct-13 13:30N 37°60' W 122°25'3 6.5
2017-Oct-13 13:00N 38°02' W 122°21'2 4.6
2017-Oct-13 12:30N 38°01' W 122°24'3 6.4
2017-Oct-13 11:59N 37°58' W 122°26'3 6.6
2017-Oct-13 11:30N 37°55' W 122°24'1 1.5
2017-Oct-13 11:00N 37°54' W 122°24'0 0.3
2017-Oct-13 10:30N 37°54' W 122°24'4 8.4
2017-Oct-13 10:00N 37°58' W 122°26'5 9.3
2017-Oct-13 09:31N 38°02' W 122°22'5 9.4
2017-Oct-13 09:00N 38°04' W 122°16'1 2.0
2017-Oct-13 08:29N 38°03' W 122°18'2 4.0
2017-Oct-13 07:59N 38°02' W 122°20'2 4.3
2017-Oct-13 07:29N 38°02' W 122°22'2 4.8
2017-Oct-13 07:01N 37°60' W 122°25'2 4.6
2017-Oct-13 06:31N 37°58' W 122°26'2 4.9
2017-Oct-13 06:00N 37°55' W 122°25'2 3.6
2017-Oct-13 05:31N 37°54' W 122°24'3 5.8
2017-Oct-13 05:00N 37°57' W 122°26'4 8.7
2017-Oct-13 04:30N 38°01' W 122°24'1 1.1
2017-Oct-13 04:00N 38°00' W 122°24'3 5.4
2017-Oct-13 03:30N 37°58' W 122°26'0 0.3
2017-Oct-13 03:00N 37°58' W 122°26'4 7.5
2017-Oct-13 02:31N 38°01' W 122°23'3 6.6
2017-Oct-13 02:00N 38°02' W 122°20'3 6.5
2017-Oct-13 01:30N 38°04' W 122°16'2 4.3
2017-Oct-13 01:00N 38°06' W 122°16'1 0.5
2017-Oct-12 23:43N 38°06' W 122°16'1 3.8
2017-Oct-12 23:30N 38°06' W 122°16'2 4.2
2017-Oct-12 22:58N 38°04' W 122°17'2 5.0
2017-Oct-12 22:30N 38°03' W 122°19'3 5.4
2017-Oct-12 22:00N 38°02' W 122°22'3 5.6
2017-Oct-12 21:30N 37°60' W 122°25'3 5.3
2017-Oct-12 21:00N 37°57' W 122°26'2 5.1
2017-Oct-12 20:30N 37°55' W 122°25'1 1.7
2017-Oct-12 20:00N 37°54' W 122°24'1 1.3
2017-Oct-12 19:30N 37°54' W 122°23'1 2.3
2017-Oct-12 19:00N 37°55' W 122°22'0 0.7
2017-Oct-12 18:30N 37°55' W 122°22'0 0.0
2017-Oct-12 18:00N 37°55' W 122°22'0 0.0
2017-Oct-12 17:30N 37°55' W 122°22'0 0.0
2017-Oct-12 17:01N 37°55' W 122°22'0 0.0
2017-Oct-12 16:31N 37°55' W 122°22'0 0.0
2017-Oct-12 16:00N 37°55' W 122°22'0 0.0
2017-Oct-12 15:31N 37°55' W 122°22'0 0.0
2017-Oct-12 15:00N 37°55' W 122°22'1 2.4
2017-Oct-12 14:30N 37°54' W 122°23'3 6.4
2017-Oct-12 14:00N 37°57' W 122°26'3 6.3
2017-Oct-12 13:30N 37°60' W 122°25'3 6.0
2017-Oct-12 13:00N 38°02' W 122°22'3 6.4
2017-Oct-12 12:31N 38°03' W 122°18'3 5.9
2017-Oct-12 11:58N 38°04' W 122°15'2 3.5
2017-Oct-12 11:30N 38°06' W 122°16'1 2.1
2017-Oct-12 11:00N 38°05' W 122°15'2 4.8
2017-Oct-12 10:30N 38°03' W 122°17'3 6.1
2017-Oct-12 10:00N 38°02' W 122°21'3 6.6
2017-Oct-12 09:30N 38°00' W 122°24'2 3.6
2017-Oct-12 09:00N 37°59' W 122°25'4 8.7
2017-Oct-12 08:30N 38°02' W 122°21'3 6.5
2017-Oct-12 08:00N 38°03' W 122°18'1 1.6
2017-Oct-12 07:30N 38°03' W 122°19'1 2.5
2017-Oct-12 07:01N 38°02' W 122°20'2 3.1
2017-Oct-12 06:30N 38°02' W 122°22'2 3.3
2017-Oct-12 06:01N 38°01' W 122°24'2 3.6
2017-Oct-12 05:30N 37°59' W 122°25'2 4.2
2017-Oct-12 05:00N 37°57' W 122°26'2 3.7
2017-Oct-12 04:30N 37°56' W 122°25'2 3.9
2017-Oct-12 04:01N 37°54' W 122°24'0 0.3
2017-Oct-12 03:31N 37°54' W 122°24'5 9.4
2017-Oct-12 03:01N 37°59' W 122°25'0 0.4
2017-Oct-12 02:30N 37°59' W 122°25'3 5.6
2017-Oct-12 02:00N 37°56' W 122°26'3 6.1
2017-Oct-12 01:31N 37°54' W 122°23'1 1.3
2017-Oct-12 01:01N 37°54' W 122°24'3 6.6
2017-Oct-12 00:31N 37°57' W 122°26'3 6.3
2017-Oct-12 00:00N 38°00' W 122°24'3 6.2
2017-Oct-11 23:31N 38°02' W 122°21'3 6.6
2017-Oct-11 23:00N 38°03' W 122°17'2 4.8
2017-Oct-11 22:30N 38°05' W 122°15'0 0.1
2017-Oct-11 22:00N 38°05' W 122°15'3 6.5
2017-Oct-11 21:30N 38°03' W 122°18'3 7.0
2017-Oct-11 21:00N 38°02' W 122°22'4 7.5
2017-Oct-11 20:30N 37°59' W 122°25'4 7.1
2017-Oct-11 20:00N 37°55' W 122°25'1 1.7
2017-Oct-11 19:30N 37°55' W 122°24'4 7.2
2017-Oct-11 19:00N 37°58' W 122°26'4 7.7
2017-Oct-11 18:30N 38°01' W 122°23'1 2.8
2017-Oct-11 18:00N 38°02' W 122°21'2 4.2
2017-Oct-11 17:31N 38°01' W 122°24'2 4.5
2017-Oct-11 17:01N 37°59' W 122°25'5 0.3
2017-Oct-11 00:00N 37°54' W 122°24'1 2.0
2017-Oct-10 23:30N 37°55' W 122°25'4 6.4
2017-Oct-10 22:56N 37°59' W 122°26'3 6.2
2017-Oct-10 22:30N 38°01' W 122°24'3 6.3
2017-Oct-10 22:01N 38°02' W 122°20'3 6.7
2017-Oct-10 21:30N 38°03' W 122°16'2 4.1
2017-Oct-10 21:00N 38°05' W 122°15'2 3.1
2017-Oct-10 20:30N 38°04' W 122°16'4 7.2
2017-Oct-10 20:00N 38°03' W 122°20'4 8.0
2017-Oct-10 19:30N 38°00' W 122°24'4 7.8
2017-Oct-10 18:58N 37°57' W 122°26'3 6.1
2017-Oct-10 18:30N 37°54' W 122°24'2 3.3
2017-Oct-10 18:00N 37°55' W 122°22'0 0.0
2017-Oct-10 17:30N 37°55' W 122°22'0 0.0
2017-Oct-10 17:00N 37°55' W 122°22'0 0.0
2017-Oct-10 16:30N 37°55' W 122°22'0 0.0
2017-Oct-10 16:00N 37°55' W 122°22'0 0.0
2017-Oct-10 15:30N 37°55' W 122°22'0 0.0
2017-Oct-10 15:00N 37°55' W 122°22'1 1.2
2017-Oct-10 14:00N 37°54' W 122°22'0 0.0
2017-Oct-10 13:30N 37°54' W 122°22'0 0.5
2017-Oct-10 13:01N 37°54' W 122°22'2 3.6
2017-Oct-10 12:31N 37°55' W 122°24'3 6.7
2017-Oct-10 12:00N 37°58' W 122°26'4 7.3
2017-Oct-10 11:30N 38°01' W 122°24'4 7.2
2017-Oct-10 11:00N 38°02' W 122°20'4 7.5
2017-Oct-10 10:29N 38°04' W 122°15'2 3.3
2017-Oct-10 09:59N 38°06' W 122°16'2 4.0
2017-Oct-10 09:27N 38°04' W 122°16'2 5.5
2017-Oct-10 09:00N 38°03' W 122°19'3 5.5
2017-Oct-10 08:30N 38°01' W 122°22'3 5.8
2017-Oct-10 08:00N 37°59' W 122°25'3 5.8
2017-Oct-10 07:30N 37°57' W 122°26'3 5.3
2017-Oct-10 07:01N 37°54' W 122°24'2 3.4
2017-Oct-10 06:31N 37°54' W 122°22'0 0.2
2017-Oct-10 06:00N 37°54' W 122°22'1 3.0
2017-Oct-10 05:30N 37°54' W 122°24'5 8.8
2017-Oct-10 04:58N 37°59' W 122°25'1 2.0
2017-Oct-10 04:30N 37°60' W 122°25'3 5.0
2017-Oct-10 03:59N 37°57' W 122°26'2 4.7
2017-Oct-10 03:31N 37°55' W 122°25'1 2.4
2017-Oct-10 03:00N 37°54' W 122°24'4 8.1
2017-Oct-10 02:31N 37°58' W 122°26'4 7.9
2017-Oct-10 02:00N 38°01' W 122°23'4 7.1
2017-Oct-10 01:30N 38°03' W 122°19'3 6.2
2017-Oct-10 01:00N 38°04' W 122°15'1 1.5
2017-Oct-10 00:29N 38°03' W 122°16'3 5.4
2017-Oct-10 00:00N 38°03' W 122°19'4 8.1
2017-Oct-09 23:30N 38°01' W 122°24'3 5.5
2017-Oct-09 23:00N 37°58' W 122°26'4 7.3
2017-Oct-09 22:30N 38°01' W 122°23'4 7.2
2017-Oct-09 22:01N 38°03' W 122°19'4 6.5
2017-Oct-09 21:27N 38°05' W 122°15'2 2.4
2017-Oct-09 20:36N 38°06' W 122°16'1 4.8
2017-Oct-09 20:26N 38°06' W 122°16'2 4.9
2017-Oct-09 19:59N 38°03' W 122°16'3 5.5
2017-Oct-09 19:30N 38°03' W 122°20'3 6.1
2017-Oct-09 19:01N 38°01' W 122°23'3 6.6
2017-Oct-09 18:30N 37°59' W 122°25'0 0.8
2017-Oct-09 17:57N 37°58' W 122°26'4 8.9
2017-Oct-09 17:30N 38°01' W 122°23'3 6.0
2017-Oct-09 17:00N 38°03' W 122°19'2 4.1
2017-Oct-09 16:30N 38°02' W 122°21'2 4.6
2017-Oct-09 15:59N 38°01' W 122°24'3 4.4
2017-Oct-09 15:18N 37°58' W 122°26'1 4.1
2017-Oct-09 14:59N 37°57' W 122°26'2 4.3
2017-Oct-09 14:30N 37°55' W 122°25'1 1.8
2017-Oct-09 14:01N 37°54' W 122°24'1 1.8
2017-Oct-09 13:30N 37°54' W 122°23'3 6.0
2017-Oct-09 13:00N 37°56' W 122°26'3 6.5
2017-Oct-09 12:30N 37°59' W 122°25'3 5.6
2017-Oct-09 12:01N 38°01' W 122°23'3 5.1
2017-Oct-09 11:30N 38°02' W 122°20'2 4.6
2017-Oct-09 11:00N 38°03' W 122°17'2 4.0
2017-Oct-09 10:25N 38°05' W 122°15'1 0.2
2017-Oct-09 06:05N 38°05' W 122°15'1 2.9
2017-Oct-09 05:52N 38°05' W 122°15'1 3.4
2017-Oct-09 05:27N 38°04' W 122°16'2 3.4
2017-Oct-09 05:00N 38°03' W 122°18'2 3.7
2017-Oct-09 04:30N 38°02' W 122°20'2 3.8
2017-Oct-09 04:00N 38°01' W 122°22'2 3.9
2017-Oct-09 03:28N 38°00' W 122°24'2 3.8
2017-Oct-09 02:59N 37°59' W 122°26'2 4.1
2017-Oct-09 02:31N 37°57' W 122°26'2 3.7
2017-Oct-09 02:01N 37°55' W 122°25'2 4.9
2017-Oct-09 01:31N 37°54' W 122°22'2 3.3
2017-Oct-09 01:00N 37°54' W 122°24'611.4
2017-Oct-09 00:29N 38°00' W 122°24'611.7
2017-Oct-09 00:00N 38°03' W 122°17'  

Dump ship's entire track history